LFRQLFRJ

Guest
Details From LFRQ - Quimper Pluguffan
To LFRJ - Landivisiau Navy
Flight Number -
Tags generated
Created
Modified
Stats Distance 34 nm / 62 km
Max Altitude 0 ft / 0 m
Waypoints 3
Social Downloads 0
Likes 0
Share VATSIM

Download

Looking for another format? Having issues loading an existing format? Contact us
Advertisement - Login to hide

Notes

Basic altitude profile: - Ascent Rate: 2500ft/min - Ascent Speed: 140kts - Cruise Altitude: 35000ft - Cruise Speed: 150kts - Descent Rate: 1500ft/min - Descent Speed: 140kts Options: - Use NATs: yes - Use PACOTS: yes - Use low airways: yes - Use high airways: yes

Route

LFRQ LDV LFRJ

ID Type Via Altitude Latitude Longitude Leg Dist Tot Dist Heading (true) Name
O LFRQ APT - 0 ft / 0 m 47.97278˚ -4.17156˚ - 0 nm - Quimper Pluguffan
LDV VOR - 0 ft / 0 m 48.52828˚ -4.15631˚ 33 nm 33 nm 1° / 1° -
O LFRJ APT - 0 ft / 0 m 48.53023˚ -4.15179˚ 0 nm 33 nm 57° / 57° Landivisiau Navy

Altitude Profile

Advertisement - Login to hide

LFRQ

Details ICAO LFRQ (UIP)
Name Quimper Pluguffan
Region France
Timezone Europe/Paris (UTC+1.0)
Stats Elevation 297 ft / 91 m (AMSL)
Location 47.972777° -4.171559°
Runways 2
Magnetic Variation 1.435° W

METAR

LFRQ 150230Z AUTO 28011KT 9999 FEW031/// BKN041/// ///TCU 07/03 Q1002

Decode

TAF

Not found

Departure Runways

ID Width Length Bearing (true) Bearing (mag) Surface Threshold Offset Overrun Length
04 148 ft / 45 m 3,632 ft / 1,107 m 32.51° 33.95° Asphalt 1,148 ft / 350 m 0 ft / 0 m
10 148 ft / 45 m 7,035 ft / 2,144 m 93.49° 94.93° Asphalt 344 ft / 105 m 197 ft / 60 m
22 148 ft / 45 m 3,632 ft / 1,107 m 212.52° 213.96° Asphalt 0 ft / 0 m 0 ft / 0 m
28 148 ft / 45 m 7,035 ft / 2,144 m 273.51° 274.95° Asphalt 0 ft / 0 m 0 ft / 0 m

LFRJ

Details ICAO LFRJ
Name Landivisiau Navy
Region France
Timezone Europe/Paris (UTC+1.0)
Stats Elevation 347 ft / 106 m (AMSL)
Location 48.530229° -4.151792°
Runways 1
Magnetic Variation 1.493° W

METAR

LFRJ 150230Z AUTO 30010KT 9999 FEW031/// SCT058/// ///TCU 06/03 Q1000

Decode

TAF

Not found

Destination Runways

ID Width Length Bearing (true) Bearing (mag) Surface Threshold Offset Overrun Length
08 148 ft / 45 m 8,868 ft / 2,703 m 73.24° 74.73° Asphalt 0 ft / 0 m 279 ft / 85 m
26 148 ft / 45 m 8,868 ft / 2,703 m 253.27° 254.76° Asphalt 0 ft / 0 m 279 ft / 85 m

Approach Navaids

Runway Type Ident Frequency Range Bearing (true) Bearing (mag) Slope Elevation
26 Localiser LD 108.50 MHz 18 nm / 33 km 253.24° 254.73° - 347 ft / 106 m (AMSL)
26 Glidescope LD 108.50 MHz 10 nm / 19 km 253.25° 254.75° 2.50° 347 ft / 106 m (AMSL)
26 DME LD 108.50 MHz 18 nm / 33 km - - - 347 ft / 106 m (AMSL)